This is the latest recevied weather packets stored in our database for station/object KQ4WWD. If no packets are shown the sender has not sent any weather packets the latest 10 day(s).
| Time | Temp. | Humidity | Pressure | Rain* | Wind** | Luminosity | Snow |
|---|---|---|---|---|---|---|---|
| 1777221825 | 28.33° C | 67% | 1011 hPa | 0 mm | - | 800 W/m² | - |
| 1777221521 | 28.89° C | 67% | 1011 hPa | 0 mm | - | 665 W/m² | - |
| 1777221218 | 28.33° C | 71% | 1011.2 hPa | 0 mm | - | 316 W/m² | - |
| 1777220914 | 28.33° C | 73% | 1011.2 hPa | 0 mm | - | 350 W/m² | - |
| 1777220610 | 27.78° C | 75% | 1011.1 hPa | 0 mm | - | 707 W/m² | - |
| 1777220308 | 27.22° C | 76% | 1011.4 hPa | 0 mm | - | 715 W/m² | - |
| 1777220007 | 26.67° C | 80% | 1011.3 hPa | 0 mm | - | 700 W/m² | - |
| 1777219704 | 26.67° C | 81% | 1011.5 hPa | 0 mm | - | 641 W/m² | - |
| 1777219402 | 26.67° C | 81% | 1011.4 hPa | 0 mm | - | 115 W/m² | - |
| 1777219098 | 26.67° C | 82% | 1011.2 hPa | 0 mm | - | 766 W/m² | - |
| 1777218793 | 26.11° C | 81% | 1011.6 hPa | 0 mm | - | 777 W/m² | - |
| 1777218489 | 26.11° C | 84% | 1011.3 hPa | 0 mm | - | 796 W/m² | - |
| 1777218185 | 25.56° C | 85% | 1011.6 hPa | 0 mm | - | 876 W/m² | - |
| 1777217882 | 25° C | 87% | 1011.6 hPa | 0 mm | - | 880 W/m² | - |
| 1777217577 | 23.89° C | 89% | 1011.5 hPa | 0 mm | - | 943 W/m² | - |
| 1777217274 | 23.33° C | 91% | 1011.5 hPa | 0 mm | - | 972 W/m² | - |
| 1777216970 | 22.78° C | 92% | 1011.6 hPa | 0 mm | - | 948 W/m² | - |
| 1777216666 | 22.78° C | 92% | 1011.8 hPa | 3.05 mm | - | 685 W/m² | - |
| 1777216363 | 23.33° C | 91% | 1011.5 hPa | 3.05 mm | - | 194 W/m² | - |
| 1777216061 | 23.89° C | 90% | 1011.4 hPa | 0 mm | - | 136 W/m² | - |
| 1777215757 | 26.67° C | 77% | 1011.5 hPa | 0 mm | - | 109 W/m² | - |
| 1777215453 | 26.67° C | 74% | 1011.3 hPa | 0 mm | - | 120 W/m² | - |
| 1777215150 | 27.78° C | 72% | 1011.1 hPa | 0 mm | - | 194 W/m² | - |
| 1777214845 | 27.78° C | 73% | 1011.5 hPa | 0 mm | - | 1002 W/m² | - |
| 1777214544 | 27.22° C | 75% | 1011.2 hPa | 0 mm | - | 889 W/m² | - |
* Rain latest hour (hover to see other rain measurements)
** Current wind speed in m/s (hover to see current wind gust speed)